الصفحة الرئيسية
METAR-TAF:

METAR-TAF

مطار :

أرنهيم, هولندا

دائرة عرض: 52-04N, خط طول: 005-53E, ارتفاع: 48 متر

مراقبة الطقس الحالي

تاريخ ووقت الإصدار 6 دقيقة قبل الساعة 19:55UTC
ريح 8 عقدة من الغرب, الاتجاه يتراوح بين الجنوب الغربي و الشمال
درجة الحرارة 6°درجة مئوية
الرطوبة 87%
ضغط 1011 hPa
الرؤية 10 كم أو أكثر
غيوم مفككة على ارتفاع 3400 قدم
غيوم مفككة على ارتفاع 3800 قدم
ملبد بالغيوم على ارتفاع 4300 قدم

METAR: EHDL 091955Z AUTO 27008KT 230V360 9999 BKN034 BKN038 OVC043 06/04 Q1011 REDZ BLU

زمن: 21:01 (20:01 UTC)


TAF: مفقودة

أرصاد الطقس والتوقعات من أكثر من 4000 مطار (تقارير الطقس للمطار METAR والتنبؤ بالطقس بالمطارTAF).

المحطات المتاحة هي النقط الصفراء والحمراء على الخريطة.

حرك المؤشر فوق النقطة لمعرفة اسم المحطة.

ثم انقر لمعرفة أرصاد وتوقعات الطقس.

لتغيير الخارطة: اضغط على الأزرار الخضراء مع رمز الصليب الأسود للتكبير. على الزر الأخضر مع شرطة للتصغير، أو على الأسهم الخضراء للخرائط المجاورة.


METAR-TAF: